Time;durP1;ratioP1;P1;durP2;ratioP2;P2;SDS_P1;SDS_P2;PMS_P1;PMS_P2;Temp;Humidity;BMP_temperature;BMP_pressure;BME280_temperature;BME280_humidity;BME280_pressure;Samples;Min_cycle;Max_cycle;Signal;HPM_P1;HPM_P2
2023/06/29 00:00:48;;;;;;;13.18;9.85;;;;;;;;;;5067151;27;99894;-77
2023/06/29 00:03:17;;;;;;;15.23;11.10;;;;;;;;;;5066970;27;99617;-77
2023/06/29 00:05:45;;;;;;;13.63;9.95;;;;;;;;;;5066658;27;98704;-77
2023/06/29 00:08:11;;;;;;;16.95;12.10;;;;;;;;;;5066978;27;99888;-77
2023/06/29 00:10:39;;;;;;;14.02;10.93;;;;;;;;;;5065865;27;98430;-77
2023/06/29 00:13:05;;;;;;;15.77;11.23;;;;;;;;;;5066804;27;99304;-77
2023/06/29 00:15:32;;;;;;;21.40;12.07;;;;;;;;;;5067108;27;100092;-77
2023/06/29 00:17:59;;;;;;;11.48;9.93;;;;;;;;;;5067654;27;98603;-78
2023/06/29 00:20:28;;;;;;;14.63;11.05;;;;;;;;;;5073970;27;99992;-77
2023/06/29 00:22:55;;;;;;;13.52;11.25;;;;;;;;;;5070180;27;99806;-78
2023/06/29 00:25:21;;;;;;;14.23;11.30;;;;;;;;;;5071021;27;99395;-77
2023/06/29 00:27:47;;;;;;;16.95;12.23;;;;;;;;;;5070127;27;100101;-78
2023/06/29 00:30:15;;;;;;;15.65;10.90;;;;;;;;;;5069008;27;98354;-79
2023/06/29 00:32:41;;;;;;;12.98;10.63;;;;;;;;;;5052337;27;99534;-77
2023/06/29 00:35:10;;;;;;;13.15;10.50;;;;;;;;;;5051810;27;99935;-79
2023/06/29 00:37:36;;;;;;;15.07;11.38;;;;;;;;;;5070226;27;98245;-77
2023/06/29 00:40:05;;;;;;;18.77;11.35;;;;;;;;;;5051848;27;101505;-79
2023/06/29 00:42:31;;;;;;;20.45;11.75;;;;;;;;;;5072583;27;100493;-78
2023/06/29 00:44:58;;;;;;;18.70;11.43;;;;;;;;;;5070052;27;98364;-78
2023/06/29 00:47:24;;;;;;;15.95;10.57;;;;;;;;;;5070297;27;99568;-78
2023/06/29 00:49:51;;;;;;;17.85;12.20;;;;;;;;;;5070291;27;98168;-77
2023/06/29 00:52:17;;;;;;;15.20;11.70;;;;;;;;;;5069284;27;99483;-78
2023/06/29 00:54:44;;;;;;;19.05;12.70;;;;;;;;;;5050679;27;100835;-78
2023/06/29 00:57:11;;;;;;;23.88;12.65;;;;;;;;;;5051607;27;98322;-78
2023/06/29 00:59:39;;;;;;;14.18;11.27;;;;;;;;;;5051617;27;101026;-78
2023/06/29 01:02:08;;;;;;;16.35;11.82;;;;;;;;;;5051137;27;100229;-78
2023/06/29 01:04:37;;;;;;;14.40;11.40;;;;;;;;;;5073072;27;98165;-78
2023/06/29 01:07:06;;;;;;;16.40;11.52;;;;;;;;;;5049348;27;101910;-79
2023/06/29 01:09:33;;;;;;;16.13;11.90;;;;;;;;;;5050544;27;98238;-77
2023/06/29 01:12:01;;;;;;;15.55;11.93;;;;;;;;;;5069954;27;98478;-77
2023/06/29 01:14:30;;;;;;;15.68;11.98;;;;;;;;;;5051229;27;101814;-77
2023/06/29 01:16:57;;;;;;;16.48;11.60;;;;;;;;;;5051180;27;98638;-77
2023/06/29 01:19:28;;;;;;;15.57;11.93;;;;;;;;;;5050956;27;101385;-77
2023/06/29 01:22:00;;;;;;;14.88;11.07;;;;;;;;;;5069593;27;99864;-77
2023/06/29 01:24:31;;;;;;;19.55;12.27;;;;;;;;;;5070076;27;98144;-77
2023/06/29 01:26:58;;;;;;;14.00;10.73;;;;;;;;;;5053745;27;98661;-77
2023/06/29 01:29:25;;;;;;;15.75;11.52;;;;;;;;;;5074304;27;98283;-79
2023/06/29 01:31:53;;;;;;;15.65;11.88;;;;;;;;;;5055467;27;100576;-79
2023/06/29 01:34:21;;;;;;;19.05;11.93;;;;;;;;;;5073343;27;98876;-78
2023/06/29 01:36:50;;;;;;;22.58;13.30;;;;;;;;;;5071584;27;98289;-77
2023/06/29 01:39:19;;;;;;;15.45;11.80;;;;;;;;;;5073048;27;98372;-78
2023/06/29 01:41:46;;;;;;;16.02;12.45;;;;;;;;;;5069209;27;99848;-78
2023/06/29 01:44:16;;;;;;;15.57;12.65;;;;;;;;;;5068660;27;98191;-79
2023/06/29 01:46:43;;;;;;;21.30;11.77;;;;;;;;;;5069564;27;98384;-77
2023/06/29 01:49:11;;;;;;;17.52;11.90;;;;;;;;;;5071744;27;98530;-78
2023/06/29 01:51:38;;;;;;;20.42;12.50;;;;;;;;;;5050766;27;99444;-78
2023/06/29 01:54:04;;;;;;;15.95;13.10;;;;;;;;;;5069008;27;98906;-77
2023/06/29 01:56:31;;;;;;;17.25;11.70;;;;;;;;;;5067192;27;98403;-78
2023/06/29 01:59:01;;;;;;;15.93;11.80;;;;;;;;;;5050186;27;101028;-78
2023/06/29 02:01:29;;;;;;;19.38;13.00;;;;;;;;;;5069018;27;98916;-77
2023/06/29 02:03:55;;;;;;;20.38;12.27;;;;;;;;;;5068977;27;98249;-78
2023/06/29 02:06:23;;;;;;;18.05;11.93;;;;;;;;;;5050577;27;101437;-79
2023/06/29 02:08:49;;;;;;;21.40;13.25;;;;;;;;;;5071701;27;99560;-79
2023/06/29 02:11:16;;;;;;;13.88;12.07;;;;;;;;;;5050370;27;98776;-77
2023/06/29 02:13:42;;;;;;;15.10;11.48;;;;;;;;;;5050728;27;101701;-77
2023/06/29 02:16:09;;;;;;;18.27;13.65;;;;;;;;;;5049805;27;98660;-77
2023/06/29 02:18:35;;;;;;;15.70;12.10;;;;;;;;;;5050804;27;99735;-78
2023/06/29 02:21:02;;;;;;;18.33;11.43;;;;;;;;;;5048886;27;100347;-77
2023/06/29 02:23:28;;;;;;;14.18;12.13;;;;;;;;;;5049404;27;98688;-78
2023/06/29 02:25:54;;;;;;;15.73;11.43;;;;;;;;;;5068243;27;99692;-78
2023/06/29 02:28:21;;;;;;;18.95;12.05;;;;;;;;;;5068830;27;99405;-78
2023/06/29 02:30:51;;;;;;;17.75;11.98;;;;;;;;;;5070793;27;98243;-78
2023/06/29 02:33:19;;;;;;;17.15;12.45;;;;;;;;;;5049606;27;101263;-78
2023/06/29 02:35:45;;;;;;;16.88;12.77;;;;;;;;;;5068960;27;98172;-77
2023/06/29 02:38:12;;;;;;;19.92;13.50;;;;;;;;;;5068404;27;98455;-77
2023/06/29 02:40:38;;;;;;;21.30;13.77;;;;;;;;;;5068328;27;98771;-78
2023/06/29 02:43:05;;;;;;;25.67;13.88;;;;;;;;;;5050012;27;98305;-77
2023/06/29 02:45:31;;;;;;;23.02;14.90;;;;;;;;;;5067347;27;98610;-77
2023/06/29 02:47:58;;;;;;;21.25;13.88;;;;;;;;;;5049505;27;100098;-77
2023/06/29 02:50:25;;;;;;;17.50;13.82;;;;;;;;;;5050034;27;98276;-78
2023/06/29 02:52:52;;;;;;;19.08;14.18;;;;;;;;;;5052506;27;99261;-78
2023/06/29 02:55:21;;;;;;;19.20;14.60;;;;;;;;;;5068184;27;98278;-77
2023/06/29 02:57:48;;;;;;;21.65;14.98;;;;;;;;;;5049629;27;99383;-77
2023/06/29 03:00:14;;;;;;;20.88;14.50;;;;;;;;;;5068104;27;98974;-77
2023/06/29 03:02:41;;;;;;;23.20;14.57;;;;;;;;;;5050000;27;98801;-77
2023/06/29 03:05:07;;;;;;;19.65;14.07;;;;;;;;;;5067211;27;98389;-79
2023/06/29 03:07:34;;;;;;;20.60;13.98;;;;;;;;;;5049582;27;101521;-78
2023/06/29 03:10:01;;;;;;;18.95;14.60;;;;;;;;;;5066876;27;98299;-78
2023/06/29 03:12:27;;;;;;;21.10;14.65;;;;;;;;;;5068207;27;99667;-78
2023/06/29 03:14:55;;;;;;;23.10;14.50;;;;;;;;;;5071566;27;100113;-78
2023/06/29 03:17:23;;;;;;;18.02;14.52;;;;;;;;;;5068490;27;99546;-77
2023/06/29 03:19:49;;;;;;;25.17;14.30;;;;;;;;;;5067978;27;99809;-78
2023/06/29 03:22:16;;;;;;;21.60;14.50;;;;;;;;;;5072868;27;98208;-78
2023/06/29 03:24:42;;;;;;;18.73;13.88;;;;;;;;;;5070345;27;98826;-77
2023/06/29 03:27:11;;;;;;;21.25;15.30;;;;;;;;;;5070325;27;99918;-78
2023/06/29 03:29:37;;;;;;;22.73;15.25;;;;;;;;;;5072219;27;98379;-78
2023/06/29 03:32:04;;;;;;;17.98;14.75;;;;;;;;;;5069003;27;99994;-79
2023/06/29 03:34:30;;;;;;;19.10;14.57;;;;;;;;;;5067474;27;100247;-78
2023/06/29 03:36:57;;;;;;;17.95;14.07;;;;;;;;;;5070930;27;98341;-78
2023/06/29 03:39:23;;;;;;;23.65;15.00;;;;;;;;;;5066966;27;99481;-78
2023/06/29 03:41:50;;;;;;;22.55;15.57;;;;;;;;;;5067350;27;98499;-78
2023/06/29 03:44:16;;;;;;;23.58;15.70;;;;;;;;;;5067220;27;99463;-77
2023/06/29 03:46:42;;;;;;;19.10;15.13;;;;;;;;;;5066028;27;99302;-78
2023/06/29 03:49:09;;;;;;;25.00;16.10;;;;;;;;;;5065660;27;98314;-78
2023/06/29 03:51:35;;;;;;;23.55;15.82;;;;;;;;;;5067802;27;99454;-77
2023/06/29 03:54:03;;;;;;;22.67;15.77;;;;;;;;;;5070040;27;100171;-78
2023/06/29 03:56:31;;;;;;;23.35;16.10;;;;;;;;;;5074422;27;98224;-77
2023/06/29 03:58:57;;;;;;;22.88;15.13;;;;;;;;;;5068994;27;98988;-78
2023/06/29 04:01:24;;;;;;;19.13;15.48;;;;;;;;;;5070512;27;98423;-77
2023/06/29 04:03:50;;;;;;;20.08;15.38;;;;;;;;;;5070957;27;100999;-77
2023/06/29 04:06:17;;;;;;;23.73;15.30;;;;;;;;;;5069880;27;99177;-78
2023/06/29 04:08:43;;;;;;;32.45;15.85;;;;;;;;;;5068493;27;98197;-77
2023/06/29 04:11:11;;;;;;;21.45;15.35;;;;;;;;;;5070533;27;99467;-78
2023/06/29 04:13:38;;;;;;;25.08;15.30;;;;;;;;;;5069964;27;98968;-79
2023/06/29 04:16:05;;;;;;;31.25;16.67;;;;;;;;;;5070274;27;98255;-76
2023/06/29 04:18:31;;;;;;;20.25;15.63;;;;;;;;;;5073690;27;99126;-78
2023/06/29 04:20:58;;;;;;;24.10;16.08;;;;;;;;;;5071421;27;98253;-77
2023/06/29 04:23:24;;;;;;;25.48;15.05;;;;;;;;;;5069300;27;99575;-77
2023/06/29 04:25:51;;;;;;;22.67;14.50;;;;;;;;;;5069833;27;98948;-78
2023/06/29 04:28:17;;;;;;;29.58;16.17;;;;;;;;;;5070164;27;98229;-77
2023/06/29 04:30:43;;;;;;;23.45;16.10;;;;;;;;;;5070135;27;99446;-77
2023/06/29 04:33:10;;;;;;;22.38;15.98;;;;;;;;;;5068797;27;99170;-79
2023/06/29 04:35:40;;;;;;;23.63;16.02;;;;;;;;;;5069891;27;98279;-78
2023/06/29 04:38:11;;;;;;;21.25;15.73;;;;;;;;;;5069786;27;99680;-77
2023/06/29 04:40:37;;;;;;;27.65;16.08;;;;;;;;;;5072851;27;99956;-78
2023/06/29 04:43:06;;;;;;;25.00;16.65;;;;;;;;;;5069671;27;99384;-78
2023/06/29 04:45:32;;;;;;;26.23;16.58;;;;;;;;;;5069089;27;99153;-78
2023/06/29 04:48:00;;;;;;;30.60;17.63;;;;;;;;;;5069081;27;98254;-78
2023/06/29 04:50:30;;;;;;;24.63;16.38;;;;;;;;;;5069810;27;99736;-77
2023/06/29 04:53:08;;;;;;;21.58;15.68;;;;;;;;;;5069136;27;98876;-77
2023/06/29 04:55:35;;;;;;;22.58;15.52;;;;;;;;;;5070175;27;98241;-78
2023/06/29 04:58:03;;;;;;;23.88;16.88;;;;;;;;;;5069100;27;99366;-78
2023/06/29 05:00:32;;;;;;;24.13;15.70;;;;;;;;;;5069904;27;100354;-78
2023/06/29 05:02:59;;;;;;;24.40;15.80;;;;;;;;;;5073207;27;98310;-79
2023/06/29 05:05:26;;;;;;;22.42;16.08;;;;;;;;;;5069822;27;99998;-77
2023/06/29 05:07:53;;;;;;;22.42;15.65;;;;;;;;;;5069928;27;99186;-78
2023/06/29 05:10:19;;;;;;;23.35;16.35;;;;;;;;;;5068591;27;98407;-78
2023/06/29 05:12:46;;;;;;;23.90;16.20;;;;;;;;;;5068493;27;100133;-78
2023/06/29 05:15:12;;;;;;;22.02;15.77;;;;;;;;;;5069329;27;98444;-78
2023/06/29 05:17:40;;;;;;;21.50;16.45;;;;;;;;;;5070009;27;98129;-78
2023/06/29 05:20:08;;;;;;;16.85;13.80;;;;;;;;;;5068355;27;98858;-78
2023/06/29 05:22:36;;;;;;;27.02;17.27;;;;;;;;;;5069859;27;98211;-80
2023/06/29 05:25:03;;;;;;;20.05;15.73;;;;;;;;;;5071103;27;98467;-78
2023/06/29 05:27:29;;;;;;;26.20;16.70;;;;;;;;;;5068579;27;98911;-79
2023/06/29 05:29:56;;;;;;;21.17;15.18;;;;;;;;;;5068727;27;98708;-79
2023/06/29 05:32:22;;;;;;;24.40;16.55;;;;;;;;;;5068538;27;99092;-79
2023/06/29 05:34:49;;;;;;;23.33;15.82;;;;;;;;;;5069677;27;98270;-79
2023/06/29 05:37:15;;;;;;;17.70;14.25;;;;;;;;;;5068335;27;99689;-78
2023/06/29 05:39:41;;;;;;;21.95;16.45;;;;;;;;;;5068873;27;100075;-79
2023/06/29 05:42:08;;;;;;;27.75;16.30;;;;;;;;;;5069163;27;98021;-78
2023/06/29 05:44:34;;;;;;;21.85;15.93;;;;;;;;;;5069427;27;99658;-80
2023/06/29 05:47:01;;;;;;;22.30;15.40;;;;;;;;;;5071296;27;98925;-79
2023/06/29 05:49:27;;;;;;;20.45;15.85;;;;;;;;;;5069259;27;99399;-79
2023/06/29 05:51:54;;;;;;;32.38;17.38;;;;;;;;;;5068655;27;99261;-78
2023/06/29 05:54:20;;;;;;;22.77;16.42;;;;;;;;;;5068192;27;98368;-78
2023/06/29 05:56:47;;;;;;;26.10;15.25;;;;;;;;;;5069066;27;99582;-78
2023/06/29 05:59:13;;;;;;;19.70;15.45;;;;;;;;;;5068891;27;100189;-78
2023/06/29 06:01:40;;;;;;;22.00;16.75;;;;;;;;;;5067444;27;98319;-79
2023/06/29 06:04:06;;;;;;;23.55;15.85;;;;;;;;;;5068689;27;99298;-80
2023/06/29 06:06:33;;;;;;;25.88;17.27;;;;;;;;;;5071483;27;98961;-78
2023/06/29 06:08:59;;;;;;;23.98;16.05;;;;;;;;;;5067440;27;99396;-79
2023/06/29 06:11:26;;;;;;;23.13;16.15;;;;;;;;;;5068686;27;100256;-78
2023/06/29 06:13:52;;;;;;;24.52;16.67;;;;;;;;;;5068998;27;98375;-78
2023/06/29 06:16:20;;;;;;;19.45;15.07;;;;;;;;;;5066327;27;98733;-78
2023/06/29 06:18:47;;;;;;;29.55;16.73;;;;;;;;;;5068729;27;99767;-78
2023/06/29 06:21:14;;;;;;;23.20;16.38;;;;;;;;;;5068306;27;98257;-79
2023/06/29 06:23:40;;;;;;;23.25;16.15;;;;;;;;;;5068159;27;99475;-79
2023/06/29 06:26:07;;;;;;;27.17;16.67;;;;;;;;;;5074170;27;99982;-79
2023/06/29 06:28:33;;;;;;;20.45;15.80;;;;;;;;;;5078868;27;98098;-80
2023/06/29 06:31:00;;;;;;;20.85;16.65;;;;;;;;;;5075160;27;100371;-80
2023/06/29 06:33:30;;;;;;;24.13;16.08;;;;;;;;;;5069768;27;98265;-78
2023/06/29 06:35:57;;;;;;;22.67;15.45;;;;;;;;;;5068742;27;99477;-79
2023/06/29 06:38:24;;;;;;;26.20;17.52;;;;;;;;;;5069302;27;99819;-78
2023/06/29 06:41:10;;;;;;;27.30;16.42;;;;;;;;;;5068475;27;99389;-79
2023/06/29 06:43:37;;;;;;;27.30;16.92;;;;;;;;;;5067345;27;98651;-79
2023/06/29 06:46:04;;;;;;;29.92;16.77;;;;;;;;;;5067076;27;98980;-79
2023/06/29 06:48:30;;;;;;;30.77;16.45;;;;;;;;;;5067629;27;98338;-80
2023/06/29 06:50:56;;;;;;;23.35;16.05;;;;;;;;;;5069934;27;99582;-78
2023/06/29 06:53:24;;;;;;;21.70;16.13;;;;;;;;;;5067176;27;98261;-79
2023/06/29 06:55:50;;;;;;;23.88;16.20;;;;;;;;;;5068324;27;99492;-78
2023/06/29 06:58:16;;;;;;;21.65;16.50;;;;;;;;;;5066722;27;98878;-78
2023/06/29 07:00:43;;;;;;;25.38;17.42;;;;;;;;;;5067789;27;98243;-78
2023/06/29 07:03:10;;;;;;;25.23;16.27;;;;;;;;;;5068098;27;99691;-78
2023/06/29 07:05:37;;;;;;;22.23;16.40;;;;;;;;;;5067463;27;100230;-78
2023/06/29 07:08:03;;;;;;;23.75;15.55;;;;;;;;;;5068152;27;98832;-80
2023/06/29 07:10:30;;;;;;;22.10;15.75;;;;;;;;;;5067374;27;98650;-79
2023/06/29 07:12:56;;;;;;;22.50;17.40;;;;;;;;;;5069760;27;99071;-78
2023/06/29 07:15:23;;;;;;;21.08;14.88;;;;;;;;;;5066732;27;98523;-78
2023/06/29 07:17:49;;;;;;;28.08;15.57;;;;;;;;;;5066358;27;98856;-80
2023/06/29 07:20:16;;;;;;;25.50;15.25;;;;;;;;;;5067532;27;98233;-79
2023/06/29 07:22:45;;;;;;;23.65;16.05;;;;;;;;;;5067704;27;99620;-79
2023/06/29 07:25:15;;;;;;;26.30;15.43;;;;;;;;;;5066147;27;99169;-79
2023/06/29 07:27:42;;;;;;;21.60;15.23;;;;;;;;;;5066287;27;98263;-79
2023/06/29 07:30:10;;;;;;;22.33;15.63;;;;;;;;;;5067137;27;99808;-80
2023/06/29 07:32:36;;;;;;;21.00;16.27;;;;;;;;;;5067763;27;99869;-78
2023/06/29 07:35:03;;;;;;;24.50;16.08;;;;;;;;;;5070613;27;99343;-78
2023/06/29 07:37:29;;;;;;;21.65;14.82;;;;;;;;;;5067110;27;99965;-77
2023/06/29 07:39:56;;;;;;;22.88;16.50;;;;;;;;;;5066199;27;98571;-80
2023/06/29 07:42:22;;;;;;;23.92;16.77;;;;;;;;;;5067356;27;99283;-79
2023/06/29 07:45:05;;;;;;;26.33;16.25;;;;;;;;;;5066926;27;100747;-78
2023/06/29 07:47:31;;;;;;;25.40;15.57;;;;;;;;;;5066616;27;98082;-80
2023/06/29 07:49:58;;;;;;;24.85;16.35;;;;;;;;;;5066913;27;98426;-79
2023/06/29 07:52:25;;;;;;;23.45;16.25;;;;;;;;;;5067508;27;99799;-80
2023/06/29 07:54:51;;;;;;;22.15;16.50;;;;;;;;;;5067173;27;98250;-79
2023/06/29 07:57:18;;;;;;;25.95;17.13;;;;;;;;;;5070035;27;99350;-79
2023/06/29 07:59:47;;;;;;;24.25;15.25;;;;;;;;;;5066422;27;98298;-79
2023/06/29 08:02:13;;;;;;;23.38;15.32;;;;;;;;;;5066570;27;99688;-80
2023/06/29 08:04:40;;;;;;;22.40;15.60;;;;;;;;;;5065223;27;98986;-80
2023/06/29 08:07:11;;;;;;;21.40;17.00;;;;;;;;;;5066641;27;98753;-80
2023/06/29 08:09:37;;;;;;;26.48;15.77;;;;;;;;;;5066623;27;101145;-78
2023/06/29 08:12:04;;;;;;;20.83;15.85;;;;;;;;;;5066238;27;99059;-80
2023/06/29 08:14:32;;;;;;;19.52;15.43;;;;;;;;;;5066489;27;98213;-79
2023/06/29 08:17:00;;;;;;;19.95;16.67;;;;;;;;;;5070174;27;99576;-80
2023/06/29 08:19:26;;;;;;;23.17;16.23;;;;;;;;;;5067160;27;98245;-78
2023/06/29 08:21:55;;;;;;;21.10;16.05;;;;;;;;;;5066079;27;98413;-78
2023/06/29 08:24:22;;;;;;;20.63;16.88;;;;;;;;;;5066753;27;99864;-80
2023/06/29 08:26:48;;;;;;;21.85;16.95;;;;;;;;;;5066274;27;98357;-79
2023/06/29 08:29:15;;;;;;;22.02;16.05;;;;;;;;;;5065468;27;99745;-79
2023/06/29 08:31:41;;;;;;;21.85;16.73;;;;;;;;;;5066060;27;99134;-78
2023/06/29 08:34:08;;;;;;;21.02;16.92;;;;;;;;;;5066060;27;98108;-78
2023/06/29 08:36:36;;;;;;;21.08;16.95;;;;;;;;;;5066481;27;99584;-78
2023/06/29 08:39:02;;;;;;;20.10;15.80;;;;;;;;;;5070777;27;99433;-79
2023/06/29 08:41:29;;;;;;;21.83;16.48;;;;;;;;;;5051959;27;101374;-79
2023/06/29 08:43:55;;;;;;;21.90;17.02;;;;;;;;;;5068433;27;99252;-79
2023/06/29 08:46:22;;;;;;;20.38;16.77;;;;;;;;;;5070348;27;98214;-78
2023/06/29 08:48:50;;;;;;;21.15;17.33;;;;;;;;;;5070433;27;99400;-79
2023/06/29 08:51:18;;;;;;;22.35;18.00;;;;;;;;;;5069420;27;99903;-80
2023/06/29 08:53:45;;;;;;;26.33;18.48;;;;;;;;;;5069238;27;98310;-79
2023/06/29 08:56:12;;;;;;;23.05;17.05;;;;;;;;;;5069916;27;99276;-80
2023/06/29 08:58:39;;;;;;;22.95;17.25;;;;;;;;;;5069130;27;98191;-78
2023/06/29 09:01:06;;;;;;;19.45;16.67;;;;;;;;;;5073068;27;98283;-79
2023/06/29 09:03:32;;;;;;;26.50;18.00;;;;;;;;;;5069698;27;100732;-79
2023/06/29 09:05:59;;;;;;;23.55;17.10;;;;;;;;;;5069450;27;98282;-78
2023/06/29 09:08:26;;;;;;;27.77;17.92;;;;;;;;;;5070543;27;99384;-79
2023/06/29 09:10:55;;;;;;;23.23;17.45;;;;;;;;;;5069791;27;100159;-79
2023/06/29 09:13:25;;;;;;;19.27;16.52;;;;;;;;;;5051906;27;98216;-79
2023/06/29 09:15:52;;;;;;;23.80;17.77;;;;;;;;;;5069821;27;99557;-79
2023/06/29 09:18:23;;;;;;;28.58;17.98;;;;;;;;;;5066662;27;98912;-79
2023/06/29 09:20:57;;;;;;;23.88;17.23;;;;;;;;;;5069389;27;98227;-79
2023/06/29 09:23:27;;;;;;;20.90;16.80;;;;;;;;;;5072214;27;99080;-79
2023/06/29 09:25:55;;;;;;;20.73;15.98;;;;;;;;;;5068752;27;98268;-78
2023/06/29 09:28:21;;;;;;;18.77;16.15;;;;;;;;;;5069831;27;99570;-79
2023/06/29 09:30:49;;;;;;;19.23;15.85;;;;;;;;;;5069387;27;100250;-79
2023/06/29 09:33:16;;;;;;;19.67;16.35;;;;;;;;;;5068972;27;98241;-78
2023/06/29 09:35:50;;;;;;;20.55;16.23;;;;;;;;;;5069330;27;98476;-78
2023/06/29 09:38:18;;;;;;;18.45;16.05;;;;;;;;;;5068281;27;99089;-79
2023/06/29 09:40:45;;;;;;;17.35;15.55;;;;;;;;;;5068624;27;98688;-79
2023/06/29 09:43:18;;;;;;;25.77;16.60;;;;;;;;;;5066976;27;98527;-79
2023/06/29 09:45:45;;;;;;;19.83;16.30;;;;;;;;;;5072271;27;99896;-79
2023/06/29 09:48:12;;;;;;;20.83;15.68;;;;;;;;;;5069103;27;99550;-79
2023/06/29 09:50:47;;;;;;;16.58;14.73;;;;;;;;;;5067144;27;98957;-78
2023/06/29 09:53:14;;;;;;;17.92;15.63;;;;;;;;;;5067980;27;99071;-78
2023/06/29 09:55:42;;;;;;;20.17;16.25;;;;;;;;;;5068394;27;98938;-78
2023/06/29 09:58:09;;;;;;;21.75;18.25;;;;;;;;;;5068597;27;100176;-78
2023/06/29 10:00:35;;;;;;;20.25;16.25;;;;;;;;;;5068799;27;98416;-79
2023/06/29 10:03:02;;;;;;;21.70;15.95;;;;;;;;;;5068000;27;98520;-79
2023/06/29 10:05:31;;;;;;;17.27;14.32;;;;;;;;;;5068934;27;100292;-78
2023/06/29 10:07:57;;;;;;;14.68;12.90;;;;;;;;;;5070364;27;97989;-78
2023/06/29 10:10:25;;;;;;;13.90;12.40;;;;;;;;;;5066823;27;99064;-78
2023/06/29 10:12:55;;;;;;;18.08;13.52;;;;;;;;;;5067942;27;98352;-79
2023/06/29 10:15:22;;;;;;;14.35;12.15;;;;;;;;;;5068399;27;99349;-78
2023/06/29 10:17:55;;;;;;;18.85;14.35;;;;;;;;;;5068398;27;99899;-79
2023/06/29 10:20:24;;;;;;;16.52;13.35;;;;;;;;;;5068729;27;98179;-79
2023/06/29 10:22:50;;;;;;;19.95;14.65;;;;;;;;;;5067394;27;98497;-78
2023/06/29 10:25:19;;;;;;;22.50;14.70;;;;;;;;;;5068296;27;100438;-79
2023/06/29 10:27:47;;;;;;;18.10;14.05;;;;;;;;;;5071644;27;98554;-79
2023/06/29 10:30:18;;;;;;;19.63;15.43;;;;;;;;;;5049454;27;100011;-79
2023/06/29 10:32:47;;;;;;;19.05;15.57;;;;;;;;;;5067244;27;98320;-79
2023/06/29 10:35:14;;;;;;;18.77;15.68;;;;;;;;;;5067105;27;99896;-79
2023/06/29 10:37:41;;;;;;;17.35;14.90;;;;;;;;;;5067729;27;98771;-79
2023/06/29 10:40:09;;;;;;;21.35;15.38;;;;;;;;;;5068178;27;98335;-79
2023/06/29 10:42:41;;;;;;;22.38;15.13;;;;;;;;;;5067475;27;98552;-79
2023/06/29 10:45:21;;;;;;;20.73;14.85;;;;;;;;;;5067763;27;99777;-78
2023/06/29 10:47:59;;;;;;;18.83;15.02;;;;;;;;;;5068198;27;98330;-78
2023/06/29 10:50:27;;;;;;;17.30;14.55;;;;;;;;;;5071056;27;99633;-78
2023/06/29 10:52:58;;;;;;;19.10;14.43;;;;;;;;;;5068101;27;98193;-78
2023/06/29 10:55:31;;;;;;;17.70;14.43;;;;;;;;;;5068376;27;99276;-77
2023/06/29 10:57:59;;;;;;;20.55;14.68;;;;;;;;;;5066885;27;100023;-77
2023/06/29 11:00:26;;;;;;;18.90;14.60;;;;;;;;;;5067690;27;98855;-77
2023/06/29 11:02:53;;;;;;;21.05;15.10;;;;;;;;;;5071192;27;99979;-78
2023/06/29 11:05:20;;;;;;;19.63;14.95;;;;;;;;;;5070955;27;100012;-78
2023/06/29 11:07:47;;;;;;;16.98;14.25;;;;;;;;;;5071627;27;98148;-77
2023/06/29 11:10:14;;;;;;;19.30;13.43;;;;;;;;;;5067699;27;99176;-78
2023/06/29 11:12:41;;;;;;;19.42;13.65;;;;;;;;;;5070655;27;99536;-77
2023/06/29 11:15:10;;;;;;;17.30;13.88;;;;;;;;;;5068117;27;98985;-78
2023/06/29 11:17:47;;;;;;;19.63;13.13;;;;;;;;;;5067064;27;99810;-78
2023/06/29 11:20:15;;;;;;;15.20;13.57;;;;;;;;;;5067503;27;98451;-78
2023/06/29 11:22:42;;;;;;;15.52;13.93;;;;;;;;;;5066881;27;99529;-78
2023/06/29 11:25:10;;;;;;;17.10;13.88;;;;;;;;;;5066735;27;100328;-79
2023/06/29 11:27:36;;;;;;;17.55;13.50;;;;;;;;;;5067352;27;98290;-78
2023/06/29 11:30:09;;;;;;;16.02;12.23;;;;;;;;;;5066566;27;98678;-77
2023/06/29 11:32:41;;;;;;;17.42;13.48;;;;;;;;;;5066973;27;99040;-78
2023/06/29 11:35:10;;;;;;;16.90;13.60;;;;;;;;;;5070804;27;98143;-78
2023/06/29 11:37:38;;;;;;;18.75;13.23;;;;;;;;;;5067278;27;99050;-78
2023/06/29 11:40:25;;;;;;;17.20;12.43;;;;;;;;;;5067300;27;98803;-78
2023/06/29 11:42:53;;;;;;;22.58;12.55;;;;;;;;;;5067677;27;99252;-78
2023/06/29 11:45:21;;;;;;;15.00;12.20;;;;;;;;;;5066723;27;100801;-80
2023/06/29 11:47:53;;;;;;;16.60;13.95;;;;;;;;;;5048087;27;98285;-79
2023/06/29 11:50:19;;;;;;;15.48;13.32;;;;;;;;;;5067129;27;99508;-79
2023/06/29 11:52:46;;;;;;;18.60;13.30;;;;;;;;;;5065792;27;98980;-78
2023/06/29 11:55:14;;;;;;;23.08;13.13;;;;;;;;;;5067147;27;98270;-78
2023/06/29 11:57:41;;;;;;;17.83;14.20;;;;;;;;;;5070676;27;99219;-78
2023/06/29 12:00:13;;;;;;;16.13;14.05;;;;;;;;;;5066832;27;98238;-78
2023/06/29 12:02:40;;;;;;;16.60;13.60;;;;;;;;;;5066994;27;99242;-78
2023/06/29 12:05:07;;;;;;;19.60;13.43;;;;;;;;;;5067035;27;99943;-78
2023/06/29 12:07:35;;;;;;;17.13;13.80;;;;;;;;;;5066823;27;98276;-79
2023/06/29 12:10:02;;;;;;;18.10;13.95;;;;;;;;;;5066511;27;99445;-79
2023/06/29 12:12:33;;;;;;;18.00;13.35;;;;;;;;;;5066375;27;100108;-78
2023/06/29 12:15:10;;;;;;;16.10;13.68;;;;;;;;;;5069439;27;98539;-79
2023/06/29 12:17:36;;;;;;;21.65;13.88;;;;;;;;;;5070737;27;99861;-79
2023/06/29 12:20:13;;;;;;;18.38;13.43;;;;;;;;;;5073198;27;98237;-78
2023/06/29 12:22:41;;;;;;;19.65;14.27;;;;;;;;;;5070652;27;99797;-78
2023/06/29 12:25:11;;;;;;;19.75;14.00;;;;;;;;;;5069648;27;99175;-78
2023/06/29 12:27:39;;;;;;;23.80;14.32;;;;;;;;;;5070098;27;98294;-78
2023/06/29 12:30:06;;;;;;;18.58;14.25;;;;;;;;;;5070537;27;99699;-78
2023/06/29 12:32:32;;;;;;;18.88;14.68;;;;;;;;;;5070470;27;100206;-79
2023/06/29 12:34:59;;;;;;;20.25;13.90;;;;;;;;;;5068743;27;98334;-80
2023/06/29 12:37:25;;;;;;;17.88;13.88;;;;;;;;;;5068862;27;98495;-80
2023/06/29 12:39:54;;;;;;;19.60;13.50;;;;;;;;;;5073518;27;100099;-79
2023/06/29 12:42:21;;;;;;;17.80;13.20;;;;;;;;;;5069308;27;98150;-78
2023/06/29 12:44:48;;;;;;;21.20;13.52;;;;;;;;;;5069919;27;100084;-79
2023/06/29 12:47:14;;;;;;;17.55;13.15;;;;;;;;;;5069474;27;98289;-79
2023/06/29 12:49:41;;;;;;;19.23;14.25;;;;;;;;;;5069363;27;98867;-79
2023/06/29 12:52:07;;;;;;;18.00;12.30;;;;;;;;;;5069650;27;100146;-79
2023/06/29 12:54:35;;;;;;;18.02;12.85;;;;;;;;;;5069784;27;98295;-79
2023/06/29 12:57:01;;;;;;;20.05;12.23;;;;;;;;;;5068753;27;98615;-79
2023/06/29 12:59:29;;;;;;;15.13;10.85;;;;;;;;;;5068984;27;98990;-79
2023/06/29 13:01:59;;;;;;;14.43;9.73;;;;;;;;;;5071787;27;98279;-78
2023/06/29 13:04:25;;;;;;;14.77;9.93;;;;;;;;;;5069443;27;100051;-77
2023/06/29 13:06:54;;;;;;;12.43;9.23;;;;;;;;;;5069828;27;98225;-78
2023/06/29 13:09:21;;;;;;;18.98;10.75;;;;;;;;;;5069989;27;99387;-78
2023/06/29 13:11:50;;;;;;;17.65;10.32;;;;;;;;;;5069316;27;100306;-78
2023/06/29 13:14:16;;;;;;;20.27;11.40;;;;;;;;;;5069792;27;98317;-77
2023/06/29 13:16:43;;;;;;;18.40;11.30;;;;;;;;;;5068636;27;98767;-77
2023/06/29 13:19:09;;;;;;;15.57;11.60;;;;;;;;;;5069491;27;99931;-77
2023/06/29 13:21:36;;;;;;;16.90;11.95;;;;;;;;;;5069659;27;98248;-77
2023/06/29 13:24:02;;;;;;;17.45;11.88;;;;;;;;;;5071770;27;99403;-77
2023/06/29 13:26:29;;;;;;;23.88;11.98;;;;;;;;;;5067865;27;98294;-77
2023/06/29 13:28:56;;;;;;;15.80;12.02;;;;;;;;;;5069595;27;99612;-76
2023/06/29 13:31:22;;;;;;;14.30;11.63;;;;;;;;;;5050865;27;99994;-76
2023/06/29 13:33:49;;;;;;;18.65;12.68;;;;;;;;;;5069656;27;98320;-79
2023/06/29 13:36:15;;;;;;;14.73;11.30;;;;;;;;;;5068715;27;98696;-76
2023/06/29 13:38:42;;;;;;;17.63;11.52;;;;;;;;;;5067770;27;98994;-78
2023/06/29 13:41:08;;;;;;;16.17;12.30;;;;;;;;;;5068756;27;98366;-78
2023/06/29 13:43:35;;;;;;;17.90;11.40;;;;;;;;;;5070652;27;99601;-77
2023/06/29 13:46:01;;;;;;;14.52;11.63;;;;;;;;;;5073129;27;98172;-77
2023/06/29 13:48:28;;;;;;;16.25;12.02;;;;;;;;;;5069167;27;98716;-77
2023/06/29 13:50:55;;;;;;;13.80;11.02;;;;;;;;;;5066548;27;99813;-76
2023/06/29 13:53:21;;;;;;;15.77;12.57;;;;;;;;;;5068202;27;98239;-78
2023/06/29 13:55:48;;;;;;;17.85;11.70;;;;;;;;;;5068539;27;98672;-78
2023/06/29 13:58:14;;;;;;;13.55;11.90;;;;;;;;;;5067719;27;99140;-76
2023/06/29 14:00:41;;;;;;;16.15;11.38;;;;;;;;;;5068632;27;98884;-76
2023/06/29 14:03:07;;;;;;;17.52;12.52;;;;;;;;;;5068971;27;99332;-77
2023/06/29 14:05:34;;;;;;;15.82;11.95;;;;;;;;;;5051095;27;99826;-77
2023/06/29 14:08:01;;;;;;;17.55;12.48;;;;;;;;;;5070553;27;98825;-77
2023/06/29 14:10:27;;;;;;;17.45;12.07;;;;;;;;;;5068999;27;100374;-77
2023/06/29 14:12:55;;;;;;;15.82;12.00;;;;;;;;;;5068241;27;98241;-77
2023/06/29 14:15:21;;;;;;;16.38;11.68;;;;;;;;;;5067480;27;98701;-77
2023/06/29 14:17:48;;;;;;;15.18;11.15;;;;;;;;;;5068640;27;101028;-77